Baltimore, Maryland
Traffic Map
Current Weather Conditions
Baltimore, Maryland
Few Clouds
Few Clouds
55°
Feels Like: 55°
Wind Chill: 55° Ceiling: Unl
Heat Index: 55° Visibility: 10mi
Dew Point: 35° Wind: 8mph
Humidity: 47% Direction: 110° (ESE)
Pressure: 30.37in Gusts: 0mph
Raw Report DataKBWI 230054Z 11007KT 10SM FEW100 FEW250 13/02 A3037 RMK AO2 SLP282 T01280017
Traffic Incident Summary
Active as of:
Severity:
Category:
InformationThere was an issue retrieving the traffic information for this location. Please try a different location or try again shortly.
Advertisements